WetterOnline ( https://www.wetteronline.de )

Wetter aktuell Karlsruhe

Aktuelles Wetter: Rheinstetten (116m)

6-stündlich | Neueste Meldungen
Ortszeit Temperatur Wetter
Fr, 03.02. 19:00 8.2° C fast wolkenlos
Fr, 03.02. 13:00 8.0° C bedeckt
Fr, 03.02. 7:00 6.8° C wolkenlos
Fr, 03.02. 1:00 6.6° C bewölkt
Do, 02.02. 19:00 7.7° C bewölkt
Do, 02.02. 13:00 7.7° C bewölkt
Do, 02.02. 7:00 5.9° C wolkig
Do, 02.02. 1:00 6.1° C leichter Regen
Ortszeit Temperatur Wetter
Fr, 03.02. 20:30 8.2° C fast wolkenlos
Fr, 03.02. 20:20 8.2° C fast wolkenlos
Fr, 03.02. 20:10 8.2° C wolkenlos
Fr, 03.02. 20:00 8.2° C fast wolkenlos
Fr, 03.02. 19:50 8.2° C Sprühregen
Fr, 03.02. 19:40 8.1° C fast wolkenlos
Fr, 03.02. 19:30 8.2° C Sprühregen
Fr, 03.02. 19:00 8.2° C fast wolkenlos
Fr, 03.02. 18:30 8.1° C leicht bewölkt
Fr, 03.02. 18:00 8.1° C wolkig
Fr, 03.02. 17:30 8.1° C Sprühregen
Ortszeit Relative Feuchte Sichtweite
Fr, 03.02. 19:00 81% 65 km
Fr, 03.02. 13:00 78% >70 km
Fr, 03.02. 7:00 79% 55 km
Fr, 03.02. 1:00 83% 50 km
Do, 02.02. 19:00 72% 50 km
Do, 02.02. 13:00 76% 35 km
Do, 02.02. 7:00 84% 35 km
Do, 02.02. 1:00 78% 21 km
Ortszeit Relative Feuchte Sichtweite
Fr, 03.02. 20:30 82% >70 km
Fr, 03.02. 20:20 82% -
Fr, 03.02. 20:10 82% -
Fr, 03.02. 20:00 82% 65 km
Fr, 03.02. 19:50 82% -
Fr, 03.02. 19:40 83% -
Fr, 03.02. 19:30 82% 30 km
Fr, 03.02. 19:00 81% 65 km
Fr, 03.02. 18:30 82% >70 km
Fr, 03.02. 18:00 81% >70 km
Fr, 03.02. 17:30 80% 20 km
Ortszeit Niederschlagsmenge Niederschlagsart
Fr, 03.02. 19:00 0.1 l/m2 in 12 Std. Sprühregen
Fr, 03.02. 13:00 0.1 l/m2 in 6 Std. Regen
Fr, 03.02. 7:00 0.1 l/m2 in 12 Std. Regen
Fr, 03.02. 1:00 0.1 l/m2 in 6 Std. Regen
Do, 02.02. 19:00 0.1 l/m2 in 12 Std. Regen
Do, 02.02. 13:00 0.1 l/m2 in 6 Std. Regen
Do, 02.02. 7:00 0.1 l/m2 in 12 Std. Regen
Do, 02.02. 1:00 0.1 l/m2 in 6 Std. Regen
Ortszeit Niederschlagsmenge Niederschlagsart
Fr, 03.02. 20:30 <0.05 l/m2 in 30 Min Schnee
Fr, 03.02. 20:20 keine Meldung -
Fr, 03.02. 20:10 keine Meldung -
Fr, 03.02. 20:00 <0.05 l/m2 in 1 Std. Sprühregen
Fr, 03.02. 19:50 keine Meldung -
Fr, 03.02. 19:40 keine Meldung -
Fr, 03.02. 19:30 <0.05 l/m2 in 30 Min -
Fr, 03.02. 19:00 0.0 l/m2 in 1 Std. Sprühregen
Fr, 03.02. 18:30 0.0 l/m2 in 30 Min -
Fr, 03.02. 18:00 <0.05 l/m2 in 1 Std. Sprühregen
Fr, 03.02. 17:30 <0.05 l/m2 in 30 Min -
Ortszeit Stärke Spitze Richtung
km/h Bft. km/h Grad Sektor
Fr, 03.02. 19:00 31 5 67 250° W
Fr, 03.02. 13:00 29 5 43 230° SW
Fr, 03.02. 7:00 26 4 43 230° SW
Fr, 03.02. 1:00 25 4 40 220° SW
Do, 02.02. 19:00 28 4 57 240° SW
Do, 02.02. 13:00 35 5 56 250° W
Do, 02.02. 7:00 26 4 44 220° SW
Do, 02.02. 1:00 29 5 50 230° SW
Ortszeit Stärke Spitze Richtung
km/h Bft. km/h Grad Sektor
Fr, 03.02. 20:30 28 4 39 240° SW
Fr, 03.02. 20:20 28 4 - 240° SW
Fr, 03.02. 20:10 25 4 - 240° SW
Fr, 03.02. 20:00 31 5 43 240° SW
Fr, 03.02. 19:50 31 5 - 240° SW
Fr, 03.02. 19:40 31 5 - 240° SW
Fr, 03.02. 19:30 31 5 43 250° W
Fr, 03.02. 19:00 31 5 56 250° W
Fr, 03.02. 18:30 29 5 58 240° SW
Fr, 03.02. 18:00 32 5 50 240° SW
Fr, 03.02. 17:30 33 5 50 240° SW
Ortszeit Untergrenze Bedeckung Gattung
total tief tief mittel hoch
Fr, 03.02. 19:00 570 m 1/8 1/8 - - -
Fr, 03.02. 13:00 660 m 8/8 8/8 - - -
Fr, 03.02. 7:00 - 0/8 0/8 - - -
Fr, 03.02. 1:00 570 m 7/8 7/8 - - -
Do, 02.02. 19:00 750 m 7/8 7/8 - - -
Do, 02.02. 13:00 840 m 7/8 7/8 - - -
Do, 02.02. 7:00 660 m 6/8 6/8 - - -
Do, 02.02. 1:00 750 m 8/8 8/8 - - -
Ortszeit Bedeckungsgrad in Achtel und Wolkenuntergrenze
Fr, 03.02. 20:30 1(540m)
Fr, 03.02. 20:20 1(540m)
Fr, 03.02. 20:10 keine Wolken
Fr, 03.02. 20:00 1(570m)
Fr, 03.02. 19:50 1(570m)
Fr, 03.02. 19:40 1
Fr, 03.02. 19:30 1(570m)
Fr, 03.02. 19:00 1(570m)
Fr, 03.02. 18:30 2(660m)
Fr, 03.02. 18:00 3(750m) 5(960m)
Fr, 03.02. 17:30 5(630m)
Ortszeit Luftdruck NN (hPa) Tendenz (hPa in 3 Std.)
Fr, 03.02. 19:00 1031 + 0,8
Fr, 03.02. 13:00 1030 - 1,1
Fr, 03.02. 7:00 1031 + 0,2
Fr, 03.02. 1:00 1032 + 0,6
Do, 02.02. 19:00 1031 + 2,4
Do, 02.02. 13:00 1028 + 0,4
Do, 02.02. 7:00 1026 + 0,7
Do, 02.02. 1:00 1025 0,0
Ortszeit Luftdruck NN (hPa) Tendenz (hPa in 3 Std.)
Fr, 03.02. 20:30 1031 + 0,7
Fr, 03.02. 20:20 1031 keine Meldung
Fr, 03.02. 20:10 1031 keine Meldung
Fr, 03.02. 20:00 1031 + 0,6
Fr, 03.02. 19:50 1031 keine Meldung
Fr, 03.02. 19:40 1031 keine Meldung
Fr, 03.02. 19:30 1031 + 1,1
Fr, 03.02. 19:00 1031 + 0,8
Fr, 03.02. 18:30 1030 + 0,9
Fr, 03.02. 18:00 1030 + 0,7
Fr, 03.02. 17:30 1030 + 0,6
Ortszeit Schneehöhe (cm)
Fr, 03.02. 19:00 0
Fr, 03.02. 13:00 0
Fr, 03.02. 7:00 0
Fr, 03.02. 1:00 0
Do, 02.02. 19:00 0
Do, 02.02. 13:00 0
Do, 02.02. 7:00 0
Do, 02.02. 1:00 0
Ortszeit Schneehöhe (cm)
Fr, 03.02. 20:30 0
Fr, 03.02. 20:20 0
Fr, 03.02. 20:10 0
Fr, 03.02. 20:00 0
Fr, 03.02. 19:50 0
Fr, 03.02. 19:40 0
Fr, 03.02. 19:30 0
Fr, 03.02. 19:00 0
Fr, 03.02. 18:30 0
Fr, 03.02. 18:00 0
Fr, 03.02. 17:30 0
Link zu dieser Seite / Seite empfehlen

Das Wetter in ...